X  Κλείσε Στοιχεία αεροπορικών μετεωρολογικών δεδομένων METAR     LHBP Budapest Liszt Ferenc International Airport
θερμοκρασία
21°C θερμοκρασία
14°C Σημείο δρόσου
64% Υγρασία



Ανεμος
8 KM/H
5 MPH
2 M/S
4 KTS



350°
V
Τρέχουσες συνθήκες

Σαφή Σαφή
πίεση 1015.92 (hPa) - 30 (inHg)
Ορατότητα 6 (μίλι) - 9.7 (km)
Aεροδρόμιο
Κωδικός αεροδρομίου LHBP

Τοποθεσία: Budapest Liszt Ferenc International Airport
Απόσταση: 14 (km)

Metar:
LHBP 240500Z 35004KT CAVOK 21/14 Q1016 NOSIG

ώρα: 2024-06-24 07:00 CEST